sensor_id;sensor_type;location;lat;lon;timestamp;temperature;humidity
4643;DHT22;2334;48.710;9.622;2024-03-08T00:00:33;3.40;99.90
4643;DHT22;2334;48.710;9.622;2024-03-08T00:03:00;3.40;99.90
4643;DHT22;2334;48.710;9.622;2024-03-08T00:05:28;3.30;99.90
4643;DHT22;2334;48.710;9.622;2024-03-08T00:07:55;3.30;99.90
4643;DHT22;2334;48.710;9.622;2024-03-08T00:10:23;3.20;99.90
4643;DHT22;2334;48.710;9.622;2024-03-08T00:12:50;3.20;99.90
4643;DHT22;2334;48.710;9.622;2024-03-08T00:15:19;3.30;99.90
4643;DHT22;2334;48.710;9.622;2024-03-08T00:17:46;3.30;99.90
4643;DHT22;2334;48.710;9.622;2024-03-08T00:20:13;3.30;99.90
4643;DHT22;2334;48.710;9.622;2024-03-08T00:22:40;3.30;99.90
4643;DHT22;2334;48.710;9.622;2024-03-08T00:25:07;3.40;99.90
4643;DHT22;2334;48.710;9.622;2024-03-08T00:27:36;3.40;99.90
4643;DHT22;2334;48.710;9.622;2024-03-08T00:30:05;3.40;99.90
4643;DHT22;2334;48.710;9.622;2024-03-08T00:32:32;3.40;99.90
4643;DHT22;2334;48.710;9.622;2024-03-08T00:34:59;3.40;99.90
4643;DHT22;2334;48.710;9.622;2024-03-08T00:37:26;3.40;99.90
4643;DHT22;2334;48.710;9.622;2024-03-08T00:39:53;3.40;99.90
4643;DHT22;2334;48.710;9.622;2024-03-08T00:42:20;3.40;99.90
4643;DHT22;2334;48.710;9.622;2024-03-08T00:44:49;3.40;99.90
4643;DHT22;2334;48.710;9.622;2024-03-08T00:47:16;3.30;99.90
4643;DHT22;2334;48.710;9.622;2024-03-08T00:49:43;3.30;99.90
4643;DHT22;2334;48.710;9.622;2024-03-08T00:52:12;3.30;99.90
4643;DHT22;2334;48.710;9.622;2024-03-08T00:54:38;3.20;99.90
4643;DHT22;2334;48.710;9.622;2024-03-08T00:57:05;3.20;99.90
4643;DHT22;2334;48.710;9.622;2024-03-08T00:59:33;3.10;99.90
4643;DHT22;2334;48.710;9.622;2024-03-08T01:02:01;3.10;99.90
4643;DHT22;2334;48.710;9.622;2024-03-08T01:04:28;3.10;99.90
4643;DHT22;2334;48.710;9.622;2024-03-08T01:06:55;3.10;99.90
4643;DHT22;2334;48.710;9.622;2024-03-08T01:09:22;3.10;99.90
4643;DHT22;2334;48.710;9.622;2024-03-08T01:11:49;3.00;99.90
4643;DHT22;2334;48.710;9.622;2024-03-08T01:14:16;3.00;99.90
4643;DHT22;2334;48.710;9.622;2024-03-08T01:16:43;3.00;99.90
4643;DHT22;2334;48.710;9.622;2024-03-08T01:19:12;3.00;99.90
4643;DHT22;2334;48.710;9.622;2024-03-08T01:21:39;3.00;99.90
4643;DHT22;2334;48.710;9.622;2024-03-08T01:24:06;2.90;99.90
4643;DHT22;2334;48.710;9.622;2024-03-08T01:26:33;2.90;99.90
4643;DHT22;2334;48.710;9.622;2024-03-08T01:29:01;2.90;99.90
4643;DHT22;2334;48.710;9.622;2024-03-08T01:31:28;2.80;99.90
4643;DHT22;2334;48.710;9.622;2024-03-08T01:33:55;2.80;99.90
4643;DHT22;2334;48.710;9.622;2024-03-08T01:36:24;2.70;99.90
4643;DHT22;2334;48.710;9.622;2024-03-08T01:38:51;2.70;99.90
4643;DHT22;2334;48.710;9.622;2024-03-08T01:41:18;2.60;99.90
4643;DHT22;2334;48.710;9.622;2024-03-08T01:43:45;2.50;99.90
4643;DHT22;2334;48.710;9.622;2024-03-08T01:46:15;2.40;99.90
4643;DHT22;2334;48.710;9.622;2024-03-08T01:48:43;2.40;99.90
4643;DHT22;2334;48.710;9.622;2024-03-08T01:51:10;2.40;99.90
4643;DHT22;2334;48.710;9.622;2024-03-08T01:53:42;2.40;99.90
4643;DHT22;2334;48.710;9.622;2024-03-08T01:56:11;2.50;99.90
4643;DHT22;2334;48.710;9.622;2024-03-08T01:58:40;2.50;99.90
4643;DHT22;2334;48.710;9.622;2024-03-08T02:01:09;2.50;99.90
4643;DHT22;2334;48.710;9.622;2024-03-08T02:03:38;2.40;99.90
4643;DHT22;2334;48.710;9.622;2024-03-08T02:06:05;2.40;99.90
4643;DHT22;2334;48.710;9.622;2024-03-08T02:08:35;2.40;99.90
4643;DHT22;2334;48.710;9.622;2024-03-08T02:11:04;2.50;99.90
4643;DHT22;2334;48.710;9.622;2024-03-08T02:13:30;2.50;99.90
4643;DHT22;2334;48.710;9.622;2024-03-08T02:15:59;2.50;99.90
4643;DHT22;2334;48.710;9.622;2024-03-08T02:18:27;2.50;99.90
4643;DHT22;2334;48.710;9.622;2024-03-08T02:20:56;2.50;99.90
4643;DHT22;2334;48.710;9.622;2024-03-08T02:23:24;2.50;99.90
4643;DHT22;2334;48.710;9.622;2024-03-08T02:25:52;2.50;99.90
4643;DHT22;2334;48.710;9.622;2024-03-08T02:28:20;2.50;99.90
4643;DHT22;2334;48.710;9.622;2024-03-08T02:30:48;2.50;99.90
4643;DHT22;2334;48.710;9.622;2024-03-08T02:33:15;2.50;99.90
4643;DHT22;2334;48.710;9.622;2024-03-08T02:35:43;2.50;99.90
4643;DHT22;2334;48.710;9.622;2024-03-08T02:38:13;2.60;99.90
4643;DHT22;2334;48.710;9.622;2024-03-08T02:40:41;2.60;99.90
4643;DHT22;2334;48.710;9.622;2024-03-08T02:43:08;2.60;99.90
4643;DHT22;2334;48.710;9.622;2024-03-08T02:45:35;2.60;99.90
4643;DHT22;2334;48.710;9.622;2024-03-08T02:48:03;2.50;99.90
4643;DHT22;2334;48.710;9.622;2024-03-08T02:50:32;2.50;99.90
4643;DHT22;2334;48.710;9.622;2024-03-08T02:53:00;2.50;99.90
4643;DHT22;2334;48.710;9.622;2024-03-08T02:55:29;2.60;99.90
4643;DHT22;2334;48.710;9.622;2024-03-08T02:57:56;2.60;99.90
4643;DHT22;2334;48.710;9.622;2024-03-08T03:00:23;2.60;99.90
4643;DHT22;2334;48.710;9.622;2024-03-08T03:02:50;2.50;99.90
4643;DHT22;2334;48.710;9.622;2024-03-08T03:05:19;2.50;99.90
4643;DHT22;2334;48.710;9.622;2024-03-08T03:07:46;2.50;99.90
4643;DHT22;2334;48.710;9.622;2024-03-08T03:10:14;2.50;99.90
4643;DHT22;2334;48.710;9.622;2024-03-08T03:12:44;2.40;99.90
4643;DHT22;2334;48.710;9.622;2024-03-08T03:15:12;2.40;99.90
4643;DHT22;2334;48.710;9.622;2024-03-08T03:17:39;2.40;99.90
4643;DHT22;2334;48.710;9.622;2024-03-08T03:20:07;2.30;99.90
4643;DHT22;2334;48.710;9.622;2024-03-08T03:22:38;2.30;99.90
4643;DHT22;2334;48.710;9.622;2024-03-08T03:25:07;2.30;99.90
4643;DHT22;2334;48.710;9.622;2024-03-08T03:27:35;2.40;99.90
4643;DHT22;2334;48.710;9.622;2024-03-08T03:30:04;2.30;99.90
4643;DHT22;2334;48.710;9.622;2024-03-08T03:32:59;2.30;99.90
4643;DHT22;2334;48.710;9.622;2024-03-08T03:35:27;2.30;99.90
4643;DHT22;2334;48.710;9.622;2024-03-08T03:37:54;2.30;99.90
4643;DHT22;2334;48.710;9.622;2024-03-08T03:40:32;2.30;99.90
4643;DHT22;2334;48.710;9.622;2024-03-08T03:42:59;2.30;99.90
4643;DHT22;2334;48.710;9.622;2024-03-08T03:45:26;2.40;99.90
4643;DHT22;2334;48.710;9.622;2024-03-08T03:47:53;2.40;99.90
4643;DHT22;2334;48.710;9.622;2024-03-08T03:50:22;2.40;99.90
4643;DHT22;2334;48.710;9.622;2024-03-08T03:52:49;2.40;99.90
4643;DHT22;2334;48.710;9.622;2024-03-08T03:55:16;2.40;99.90
4643;DHT22;2334;48.710;9.622;2024-03-08T03:57:43;2.30;99.90
4643;DHT22;2334;48.710;9.622;2024-03-08T04:00:12;2.30;99.90
4643;DHT22;2334;48.710;9.622;2024-03-08T04:02:39;2.30;99.90
4643;DHT22;2334;48.710;9.622;2024-03-08T04:05:08;2.30;99.90
4643;DHT22;2334;48.710;9.622;2024-03-08T04:07:37;2.30;99.90
4643;DHT22;2334;48.710;9.622;2024-03-08T04:10:06;2.40;99.90
4643;DHT22;2334;48.710;9.622;2024-03-08T04:12:33;2.40;99.90
4643;DHT22;2334;48.710;9.622;2024-03-08T04:15:01;2.40;99.90
4643;DHT22;2334;48.710;9.622;2024-03-08T04:17:28;2.40;99.90
4643;DHT22;2334;48.710;9.622;2024-03-08T04:19:54;2.50;99.90
4643;DHT22;2334;48.710;9.622;2024-03-08T04:22:22;2.40;99.90
4643;DHT22;2334;48.710;9.622;2024-03-08T04:24:50;2.40;99.90
4643;DHT22;2334;48.710;9.622;2024-03-08T04:27:17;2.40;99.90
4643;DHT22;2334;48.710;9.622;2024-03-08T04:29:44;2.50;99.90
4643;DHT22;2334;48.710;9.622;2024-03-08T04:32:12;2.50;99.90
4643;DHT22;2334;48.710;9.622;2024-03-08T04:34:39;2.50;99.90
4643;DHT22;2334;48.710;9.622;2024-03-08T04:37:06;2.60;99.90
4643;DHT22;2334;48.710;9.622;2024-03-08T04:39:36;2.60;99.90
4643;DHT22;2334;48.710;9.622;2024-03-08T04:42:05;2.60;99.90
4643;DHT22;2334;48.710;9.622;2024-03-08T04:44:35;2.60;99.90
4643;DHT22;2334;48.710;9.622;2024-03-08T04:47:03;2.60;99.90
4643;DHT22;2334;48.710;9.622;2024-03-08T04:49:31;2.60;99.90
4643;DHT22;2334;48.710;9.622;2024-03-08T04:52:00;2.60;99.90
4643;DHT22;2334;48.710;9.622;2024-03-08T04:54:28;2.60;99.90
4643;DHT22;2334;48.710;9.622;2024-03-08T04:56:55;2.60;99.90
4643;DHT22;2334;48.710;9.622;2024-03-08T04:59:23;2.60;99.90
4643;DHT22;2334;48.710;9.622;2024-03-08T05:01:50;2.60;99.90
4643;DHT22;2334;48.710;9.622;2024-03-08T05:04:17;2.60;99.90
4643;DHT22;2334;48.710;9.622;2024-03-08T05:06:44;2.60;99.90
4643;DHT22;2334;48.710;9.622;2024-03-08T05:09:11;2.60;99.90
4643;DHT22;2334;48.710;9.622;2024-03-08T05:11:42;2.60;99.90
4643;DHT22;2334;48.710;9.622;2024-03-08T05:14:09;2.60;99.90
4643;DHT22;2334;48.710;9.622;2024-03-08T05:16:37;2.60;99.90
4643;DHT22;2334;48.710;9.622;2024-03-08T05:19:05;2.60;99.90
4643;DHT22;2334;48.710;9.622;2024-03-08T05:21:32;2.70;99.90
4643;DHT22;2334;48.710;9.622;2024-03-08T05:23:59;2.60;99.90
4643;DHT22;2334;48.710;9.622;2024-03-08T05:26:26;2.60;99.90
4643;DHT22;2334;48.710;9.622;2024-03-08T05:28:53;2.70;99.90
4643;DHT22;2334;48.710;9.622;2024-03-08T05:31:20;2.70;99.90
4643;DHT22;2334;48.710;9.622;2024-03-08T05:33:50;2.70;99.90
4643;DHT22;2334;48.710;9.622;2024-03-08T05:36:17;2.70;99.90
4643;DHT22;2334;48.710;9.622;2024-03-08T05:38:43;2.60;99.90
4643;DHT22;2334;48.710;9.622;2024-03-08T05:41:10;2.70;99.90
4643;DHT22;2334;48.710;9.622;2024-03-08T05:43:40;2.70;99.90
4643;DHT22;2334;48.710;9.622;2024-03-08T05:46:07;2.70;99.90
4643;DHT22;2334;48.710;9.622;2024-03-08T05:48:34;2.70;99.90
4643;DHT22;2334;48.710;9.622;2024-03-08T05:51:02;2.70;99.90
4643;DHT22;2334;48.710;9.622;2024-03-08T05:53:29;2.70;99.90
4643;DHT22;2334;48.710;9.622;2024-03-08T05:55:57;2.70;99.90
4643;DHT22;2334;48.710;9.622;2024-03-08T05:58:25;2.70;99.90
4643;DHT22;2334;48.710;9.622;2024-03-08T06:00:51;2.70;99.90
4643;DHT22;2334;48.710;9.622;2024-03-08T06:03:19;2.70;99.90
4643;DHT22;2334;48.710;9.622;2024-03-08T06:05:47;2.70;99.90
4643;DHT22;2334;48.710;9.622;2024-03-08T06:08:16;2.70;99.90
4643;DHT22;2334;48.710;9.622;2024-03-08T06:10:44;2.70;99.90
4643;DHT22;2334;48.710;9.622;2024-03-08T06:13:11;2.70;99.90
4643;DHT22;2334;48.710;9.622;2024-03-08T06:15:38;2.70;99.90
4643;DHT22;2334;48.710;9.622;2024-03-08T06:18:06;2.70;99.90
4643;DHT22;2334;48.710;9.622;2024-03-08T06:20:36;2.70;99.90
4643;DHT22;2334;48.710;9.622;2024-03-08T06:23:03;2.70;99.90
4643;DHT22;2334;48.710;9.622;2024-03-08T06:25:32;2.70;99.90
4643;DHT22;2334;48.710;9.622;2024-03-08T06:28:00;2.70;99.90
4643;DHT22;2334;48.710;9.622;2024-03-08T06:30:27;2.70;99.90
4643;DHT22;2334;48.710;9.622;2024-03-08T06:32:54;2.70;99.90
4643;DHT22;2334;48.710;9.622;2024-03-08T06:35:21;2.70;99.90
4643;DHT22;2334;48.710;9.622;2024-03-08T06:37:48;2.70;99.90
4643;DHT22;2334;48.710;9.622;2024-03-08T06:40:15;2.60;99.90
4643;DHT22;2334;48.710;9.622;2024-03-08T06:42:43;2.70;99.90
4643;DHT22;2334;48.710;9.622;2024-03-08T06:45:11;2.70;99.90
4643;DHT22;2334;48.710;9.622;2024-03-08T06:47:38;2.70;99.90
4643;DHT22;2334;48.710;9.622;2024-03-08T06:50:07;2.70;99.90
4643;DHT22;2334;48.710;9.622;2024-03-08T06:52:34;2.70;99.90
4643;DHT22;2334;48.710;9.622;2024-03-08T06:55:01;2.70;99.90
4643;DHT22;2334;48.710;9.622;2024-03-08T06:57:30;2.70;99.90
4643;DHT22;2334;48.710;9.622;2024-03-08T06:59:59;2.70;99.90
4643;DHT22;2334;48.710;9.622;2024-03-08T07:02:27;2.70;99.90
4643;DHT22;2334;48.710;9.622;2024-03-08T07:04:53;2.80;99.90
4643;DHT22;2334;48.710;9.622;2024-03-08T07:07:21;2.80;99.90
4643;DHT22;2334;48.710;9.622;2024-03-08T07:09:48;2.80;99.90
4643;DHT22;2334;48.710;9.622;2024-03-08T07:12:16;2.80;99.90
4643;DHT22;2334;48.710;9.622;2024-03-08T07:14:43;2.80;99.90
4643;DHT22;2334;48.710;9.622;2024-03-08T07:17:12;2.80;99.90
4643;DHT22;2334;48.710;9.622;2024-03-08T07:19:39;2.70;99.90
4643;DHT22;2334;48.710;9.622;2024-03-08T07:22:06;2.80;99.90
4643;DHT22;2334;48.710;9.622;2024-03-08T07:24:35;2.70;99.90
4643;DHT22;2334;48.710;9.622;2024-03-08T07:27:21;2.80;99.90
4643;DHT22;2334;48.710;9.622;2024-03-08T07:29:48;2.80;99.90
4643;DHT22;2334;48.710;9.622;2024-03-08T07:32:16;2.80;99.90
4643;DHT22;2334;48.710;9.622;2024-03-08T07:34:47;2.80;99.90
4643;DHT22;2334;48.710;9.622;2024-03-08T07:37:16;2.80;99.90
4643;DHT22;2334;48.710;9.622;2024-03-08T07:39:43;2.80;99.90
4643;DHT22;2334;48.710;9.622;2024-03-08T07:42:10;2.80;99.90
4643;DHT22;2334;48.710;9.622;2024-03-08T07:44:37;2.80;99.90
4643;DHT22;2334;48.710;9.622;2024-03-08T07:47:04;2.70;99.90
4643;DHT22;2334;48.710;9.622;2024-03-08T07:49:34;2.70;99.90
4643;DHT22;2334;48.710;9.622;2024-03-08T07:52:01;2.80;99.90
4643;DHT22;2334;48.710;9.622;2024-03-08T07:54:29;2.70;99.90
4643;DHT22;2334;48.710;9.622;2024-03-08T07:56:56;2.80;99.90
4643;DHT22;2334;48.710;9.622;2024-03-08T07:59:23;2.90;99.90
4643;DHT22;2334;48.710;9.622;2024-03-08T08:01:50;2.90;99.90
4643;DHT22;2334;48.710;9.622;2024-03-08T08:04:17;3.00;99.90
4643;DHT22;2334;48.710;9.622;2024-03-08T08:06:46;2.90;99.90
4643;DHT22;2334;48.710;9.622;2024-03-08T08:09:13;3.00;99.90
4643;DHT22;2334;48.710;9.622;2024-03-08T08:11:40;3.00;99.90
4643;DHT22;2334;48.710;9.622;2024-03-08T08:14:09;2.90;99.90
4643;DHT22;2334;48.710;9.622;2024-03-08T08:16:36;2.90;99.90
4643;DHT22;2334;48.710;9.622;2024-03-08T08:19:03;2.90;99.90
4643;DHT22;2334;48.710;9.622;2024-03-08T08:21:33;2.90;99.90
4643;DHT22;2334;48.710;9.622;2024-03-08T08:24:02;3.00;99.90
4643;DHT22;2334;48.710;9.622;2024-03-08T08:26:29;3.10;99.90
4643;DHT22;2334;48.710;9.622;2024-03-08T08:28:56;3.00;99.90
4643;DHT22;2334;48.710;9.622;2024-03-08T08:31:23;3.00;99.90
4643;DHT22;2334;48.710;9.622;2024-03-08T08:33:50;3.10;99.90
4643;DHT22;2334;48.710;9.622;2024-03-08T08:36:22;3.20;99.90
4643;DHT22;2334;48.710;9.622;2024-03-08T08:38:49;3.20;99.90
4643;DHT22;2334;48.710;9.622;2024-03-08T08:41:17;3.20;99.90
4643;DHT22;2334;48.710;9.622;2024-03-08T08:43:44;3.30;99.90
4643;DHT22;2334;48.710;9.622;2024-03-08T08:46:11;3.30;99.90
4643;DHT22;2334;48.710;9.622;2024-03-08T08:48:38;3.40;99.90
4643;DHT22;2334;48.710;9.622;2024-03-08T08:51:06;3.40;99.90
4643;DHT22;2334;48.710;9.622;2024-03-08T08:53:38;3.40;99.90
4643;DHT22;2334;48.710;9.622;2024-03-08T08:56:06;3.40;99.90
4643;DHT22;2334;48.710;9.622;2024-03-08T08:58:35;3.50;99.90
4643;DHT22;2334;48.710;9.622;2024-03-08T09:01:03;3.50;99.90
4643;DHT22;2334;48.710;9.622;2024-03-08T09:03:30;3.60;99.90
4643;DHT22;2334;48.710;9.622;2024-03-08T09:06:00;3.60;99.90
4643;DHT22;2334;48.710;9.622;2024-03-08T09:08:28;3.70;99.90
4643;DHT22;2334;48.710;9.622;2024-03-08T09:10:55;3.80;99.90
4643;DHT22;2334;48.710;9.622;2024-03-08T09:13:22;3.80;99.90
4643;DHT22;2334;48.710;9.622;2024-03-08T09:15:50;3.80;99.90
4643;DHT22;2334;48.710;9.622;2024-03-08T09:18:18;3.90;99.90
4643;DHT22;2334;48.710;9.622;2024-03-08T09:20:45;3.80;99.90
4643;DHT22;2334;48.710;9.622;2024-03-08T09:23:12;3.80;99.90
4643;DHT22;2334;48.710;9.622;2024-03-08T09:25:38;3.70;99.90
4643;DHT22;2334;48.710;9.622;2024-03-08T09:28:05;3.90;99.90
4643;DHT22;2334;48.710;9.622;2024-03-08T09:30:32;4.00;99.90
4643;DHT22;2334;48.710;9.622;2024-03-08T09:33:02;4.00;99.90
4643;DHT22;2334;48.710;9.622;2024-03-08T09:35:29;4.00;99.90
4643;DHT22;2334;48.710;9.622;2024-03-08T09:37:56;4.10;99.90
4643;DHT22;2334;48.710;9.622;2024-03-08T09:40:22;4.00;99.90
4643;DHT22;2334;48.710;9.622;2024-03-08T09:42:51;4.00;99.90
4643;DHT22;2334;48.710;9.622;2024-03-08T09:45:20;4.00;99.90
4643;DHT22;2334;48.710;9.622;2024-03-08T09:47:49;4.00;99.90
4643;DHT22;2334;48.710;9.622;2024-03-08T09:50:18;4.10;99.90
4643;DHT22;2334;48.710;9.622;2024-03-08T09:52:47;4.10;99.90
4643;DHT22;2334;48.710;9.622;2024-03-08T09:55:16;4.20;99.90
4643;DHT22;2334;48.710;9.622;2024-03-08T09:57:48;4.30;99.90
4643;DHT22;2334;48.710;9.622;2024-03-08T10:00:40;4.40;99.90
4643;DHT22;2334;48.710;9.622;2024-03-08T10:03:07;4.40;99.90
4643;DHT22;2334;48.710;9.622;2024-03-08T10:05:36;4.40;99.90
4643;DHT22;2334;48.710;9.622;2024-03-08T10:08:03;4.40;99.90
4643;DHT22;2334;48.710;9.622;2024-03-08T10:10:33;4.30;99.90
4643;DHT22;2334;48.710;9.622;2024-03-08T10:13:01;4.40;99.90
4643;DHT22;2334;48.710;9.622;2024-03-08T10:15:28;4.50;99.90
4643;DHT22;2334;48.710;9.622;2024-03-08T10:17:55;4.50;99.90
4643;DHT22;2334;48.710;9.622;2024-03-08T10:20:22;4.60;99.90
4643;DHT22;2334;48.710;9.622;2024-03-08T10:22:51;4.60;99.90
4643;DHT22;2334;48.710;9.622;2024-03-08T10:25:19;4.80;99.90
4643;DHT22;2334;48.710;9.622;2024-03-08T10:27:46;5.00;99.90
4643;DHT22;2334;48.710;9.622;2024-03-08T10:30:15;4.90;99.90
4643;DHT22;2334;48.710;9.622;2024-03-08T10:32:45;5.00;99.90
4643;DHT22;2334;48.710;9.622;2024-03-08T10:35:12;5.10;99.90
4643;DHT22;2334;48.710;9.622;2024-03-08T10:37:44;5.20;99.90
4643;DHT22;2334;48.710;9.622;2024-03-08T10:40:16;5.20;99.90
4643;DHT22;2334;48.710;9.622;2024-03-08T10:42:52;5.10;99.90
4643;DHT22;2334;48.710;9.622;2024-03-08T10:45:27;5.20;99.90
4643;DHT22;2334;48.710;9.622;2024-03-08T10:48:04;5.20;99.90
4643;DHT22;2334;48.710;9.622;2024-03-08T10:50:35;5.00;99.90
4643;DHT22;2334;48.710;9.622;2024-03-08T10:53:03;5.10;99.90
4643;DHT22;2334;48.710;9.622;2024-03-08T10:55:37;5.40;99.90
4643;DHT22;2334;48.710;9.622;2024-03-08T10:58:07;5.40;99.90
4643;DHT22;2334;48.710;9.622;2024-03-08T11:00:34;5.30;99.90
4643;DHT22;2334;48.710;9.622;2024-03-08T11:03:02;5.70;99.90
4643;DHT22;2334;48.710;9.622;2024-03-08T11:05:37;5.70;99.90
4643;DHT22;2334;48.710;9.622;2024-03-08T11:08:16;5.70;99.90
4643;DHT22;2334;48.710;9.622;2024-03-08T11:10:50;5.60;99.90
4643;DHT22;2334;48.710;9.622;2024-03-08T11:13:33;5.50;99.90
4643;DHT22;2334;48.710;9.622;2024-03-08T11:16:01;5.40;99.90
4643;DHT22;2334;48.710;9.622;2024-03-08T11:18:32;5.40;99.90
4643;DHT22;2334;48.710;9.622;2024-03-08T11:21:02;5.40;99.90
4643;DHT22;2334;48.710;9.622;2024-03-08T11:23:32;5.60;99.90
4643;DHT22;2334;48.710;9.622;2024-03-08T11:26:00;5.60;99.90
4643;DHT22;2334;48.710;9.622;2024-03-08T11:28:26;5.40;99.90
4643;DHT22;2334;48.710;9.622;2024-03-08T11:31:22;5.70;99.90
4643;DHT22;2334;48.710;9.622;2024-03-08T11:33:50;5.70;99.90
4643;DHT22;2334;48.710;9.622;2024-03-08T11:36:21;6.00;99.90
4643;DHT22;2334;48.710;9.622;2024-03-08T11:38:50;6.30;99.90
4643;DHT22;2334;48.710;9.622;2024-03-08T11:41:20;6.50;99.90
4643;DHT22;2334;48.710;9.622;2024-03-08T11:43:49;6.90;99.90
4643;DHT22;2334;48.710;9.622;2024-03-08T11:46:17;7.40;99.90
4643;DHT22;2334;48.710;9.622;2024-03-08T11:48:46;7.30;99.90
4643;DHT22;2334;48.710;9.622;2024-03-08T11:51:14;7.50;99.90
4643;DHT22;2334;48.710;9.622;2024-03-08T11:53:44;7.50;99.90
4643;DHT22;2334;48.710;9.622;2024-03-08T11:56:13;7.40;99.90
4643;DHT22;2334;48.710;9.622;2024-03-08T11:58:51;7.80;99.90
4643;DHT22;2334;48.710;9.622;2024-03-08T12:01:18;8.00;99.90
4643;DHT22;2334;48.710;9.622;2024-03-08T12:03:52;8.00;99.90
4643;DHT22;2334;48.710;9.622;2024-03-08T12:06:20;8.10;99.90
4643;DHT22;2334;48.710;9.622;2024-03-08T12:08:47;7.90;99.90
4643;DHT22;2334;48.710;9.622;2024-03-08T12:11:14;7.90;99.90
4643;DHT22;2334;48.710;9.622;2024-03-08T12:13:43;8.00;99.90
4643;DHT22;2334;48.710;9.622;2024-03-08T12:16:12;8.00;99.90
4643;DHT22;2334;48.710;9.622;2024-03-08T12:18:39;8.10;99.90
4643;DHT22;2334;48.710;9.622;2024-03-08T12:21:07;8.10;99.90
4643;DHT22;2334;48.710;9.622;2024-03-08T12:23:34;8.60;99.90
4643;DHT22;2334;48.710;9.622;2024-03-08T12:26:10;8.00;99.90
4643;DHT22;2334;48.710;9.622;2024-03-08T12:28:45;7.90;99.90
4643;DHT22;2334;48.710;9.622;2024-03-08T12:31:13;8.40;99.90
4643;DHT22;2334;48.710;9.622;2024-03-08T12:33:48;8.80;99.90
4643;DHT22;2334;48.710;9.622;2024-03-08T12:36:16;8.70;99.90
4643;DHT22;2334;48.710;9.622;2024-03-08T12:38:43;8.80;99.90
4643;DHT22;2334;48.710;9.622;2024-03-08T12:41:13;8.60;99.90
4643;DHT22;2334;48.710;9.622;2024-03-08T12:43:40;8.60;99.90
4643;DHT22;2334;48.710;9.622;2024-03-08T12:46:07;8.60;99.90
4643;DHT22;2334;48.710;9.622;2024-03-08T12:48:34;8.70;99.90
4643;DHT22;2334;48.710;9.622;2024-03-08T12:51:02;8.90;99.90
4643;DHT22;2334;48.710;9.622;2024-03-08T12:53:29;8.90;99.90
4643;DHT22;2334;48.710;9.622;2024-03-08T12:55:56;8.90;99.90
4643;DHT22;2334;48.710;9.622;2024-03-08T12:58:23;8.90;99.90
4643;DHT22;2334;48.710;9.622;2024-03-08T13:00:51;9.00;99.90
4643;DHT22;2334;48.710;9.622;2024-03-08T13:03:19;8.90;99.90
4643;DHT22;2334;48.710;9.622;2024-03-08T13:05:46;8.80;99.90
4643;DHT22;2334;48.710;9.622;2024-03-08T13:08:13;9.00;99.90
4643;DHT22;2334;48.710;9.622;2024-03-08T13:10:41;9.10;99.90
4643;DHT22;2334;48.710;9.622;2024-03-08T13:13:09;9.20;99.90
4643;DHT22;2334;48.710;9.622;2024-03-08T13:15:37;9.20;99.90
4643;DHT22;2334;48.710;9.622;2024-03-08T13:18:04;9.30;99.90
4643;DHT22;2334;48.710;9.622;2024-03-08T13:20:35;9.10;99.90
4643;DHT22;2334;48.710;9.622;2024-03-08T13:23:03;9.20;99.90
4643;DHT22;2334;48.710;9.622;2024-03-08T13:25:30;9.30;99.90
4643;DHT22;2334;48.710;9.622;2024-03-08T13:27:57;9.40;99.90
4643;DHT22;2334;48.710;9.622;2024-03-08T13:30:26;9.50;99.90
4643;DHT22;2334;48.710;9.622;2024-03-08T13:32:53;9.30;99.90
4643;DHT22;2334;48.710;9.622;2024-03-08T13:35:20;9.30;99.90
4643;DHT22;2334;48.710;9.622;2024-03-08T13:37:51;9.50;99.90
4643;DHT22;2334;48.710;9.622;2024-03-08T13:40:18;9.50;99.90
4643;DHT22;2334;48.710;9.622;2024-03-08T13:42:46;9.50;99.90
4643;DHT22;2334;48.710;9.622;2024-03-08T13:45:14;9.40;99.90
4643;DHT22;2334;48.710;9.622;2024-03-08T13:47:43;9.40;99.90
4643;DHT22;2334;48.710;9.622;2024-03-08T13:50:12;9.60;99.90
4643;DHT22;2334;48.710;9.622;2024-03-08T13:52:39;9.60;99.90
4643;DHT22;2334;48.710;9.622;2024-03-08T13:55:08;9.50;99.90
4643;DHT22;2334;48.710;9.622;2024-03-08T13:57:35;9.70;99.90
4643;DHT22;2334;48.710;9.622;2024-03-08T14:00:02;9.90;99.90
4643;DHT22;2334;48.710;9.622;2024-03-08T14:02:32;10.00;99.90
4643;DHT22;2334;48.710;9.622;2024-03-08T14:04:59;10.20;99.90
4643;DHT22;2334;48.710;9.622;2024-03-08T14:07:27;10.30;99.90
4643;DHT22;2334;48.710;9.622;2024-03-08T14:09:54;10.20;99.90
4643;DHT22;2334;48.710;9.622;2024-03-08T14:12:23;10.20;99.90
4643;DHT22;2334;48.710;9.622;2024-03-08T14:14:52;10.30;99.90
4643;DHT22;2334;48.710;9.622;2024-03-08T14:17:19;10.20;99.90
4643;DHT22;2334;48.710;9.622;2024-03-08T14:19:46;10.30;99.90
4643;DHT22;2334;48.710;9.622;2024-03-08T14:22:12;10.30;99.90
4643;DHT22;2334;48.710;9.622;2024-03-08T14:24:40;10.50;99.90
4643;DHT22;2334;48.710;9.622;2024-03-08T14:27:07;10.50;99.90
4643;DHT22;2334;48.710;9.622;2024-03-08T14:29:36;10.60;99.90
4643;DHT22;2334;48.710;9.622;2024-03-08T14:32:04;10.60;99.90
4643;DHT22;2334;48.710;9.622;2024-03-08T14:34:31;10.60;99.90
4643;DHT22;2334;48.710;9.622;2024-03-08T14:36:59;10.50;99.90
4643;DHT22;2334;48.710;9.622;2024-03-08T14:39:30;10.40;99.90
4643;DHT22;2334;48.710;9.622;2024-03-08T14:41:59;10.50;99.90
4643;DHT22;2334;48.710;9.622;2024-03-08T14:44:26;10.50;99.90
4643;DHT22;2334;48.710;9.622;2024-03-08T14:47:00;10.70;99.90
4643;DHT22;2334;48.710;9.622;2024-03-08T14:49:31;10.90;99.90
4643;DHT22;2334;48.710;9.622;2024-03-08T14:52:02;10.90;99.90
4643;DHT22;2334;48.710;9.622;2024-03-08T14:54:40;11.10;99.90
4643;DHT22;2334;48.710;9.622;2024-03-08T14:57:08;11.10;99.90
4643;DHT22;2334;48.710;9.622;2024-03-08T14:59:35;11.00;99.90
4643;DHT22;2334;48.710;9.622;2024-03-08T15:02:05;10.80;99.90
4643;DHT22;2334;48.710;9.622;2024-03-08T15:04:32;10.80;99.90
4643;DHT22;2334;48.710;9.622;2024-03-08T15:07:01;10.90;99.90
4643;DHT22;2334;48.710;9.622;2024-03-08T15:09:28;10.90;99.90
4643;DHT22;2334;48.710;9.622;2024-03-08T15:11:55;11.00;99.90
4643;DHT22;2334;48.710;9.622;2024-03-08T15:14:22;11.10;99.90
4643;DHT22;2334;48.710;9.622;2024-03-08T15:16:50;11.10;99.90
4643;DHT22;2334;48.710;9.622;2024-03-08T15:19:19;11.20;99.90
4643;DHT22;2334;48.710;9.622;2024-03-08T15:21:46;11.10;99.90
4643;DHT22;2334;48.710;9.622;2024-03-08T15:24:16;11.00;99.90
4643;DHT22;2334;48.710;9.622;2024-03-08T15:26:46;10.90;99.90
4643;DHT22;2334;48.710;9.622;2024-03-08T15:29:16;11.00;99.90
4643;DHT22;2334;48.710;9.622;2024-03-08T15:31:49;11.10;99.90
4643;DHT22;2334;48.710;9.622;2024-03-08T15:34:20;11.30;99.90
4643;DHT22;2334;48.710;9.622;2024-03-08T15:36:49;11.30;99.90
4643;DHT22;2334;48.710;9.622;2024-03-08T15:39:16;11.60;99.90
4643;DHT22;2334;48.710;9.622;2024-03-08T15:41:46;12.10;99.90
4643;DHT22;2334;48.710;9.622;2024-03-08T15:44:13;12.50;99.90
4643;DHT22;2334;48.710;9.622;2024-03-08T15:46:41;12.70;99.90
4643;DHT22;2334;48.710;9.622;2024-03-08T15:49:08;13.00;99.90
4643;DHT22;2334;48.710;9.622;2024-03-08T15:51:37;13.10;99.90
4643;DHT22;2334;48.710;9.622;2024-03-08T15:54:06;12.90;99.90
4643;DHT22;2334;48.710;9.622;2024-03-08T15:56:33;12.40;99.90
4643;DHT22;2334;48.710;9.622;2024-03-08T15:59:00;11.80;99.90
4643;DHT22;2334;48.710;9.622;2024-03-08T16:01:31;11.30;99.90
4643;DHT22;2334;48.710;9.622;2024-03-08T16:03:59;10.90;99.90
4643;DHT22;2334;48.710;9.622;2024-03-08T16:06:25;10.70;99.90
4643;DHT22;2334;48.710;9.622;2024-03-08T16:08:54;10.60;99.90
4643;DHT22;2334;48.710;9.622;2024-03-08T16:11:21;10.50;99.90
4643;DHT22;2334;48.710;9.622;2024-03-08T16:13:48;10.50;99.90
4643;DHT22;2334;48.710;9.622;2024-03-08T16:16:15;10.50;99.90
4643;DHT22;2334;48.710;9.622;2024-03-08T16:18:42;10.40;99.90
4643;DHT22;2334;48.710;9.622;2024-03-08T16:21:09;10.30;99.90